sensor_id;sensor_type;location;lat;lon;timestamp;P1;durP1;ratioP1;P2;durP2;ratioP2
75377;SDS011;63959;51.960;5.886;2023-01-16T00:01:04;4.05;;;1.25;;
75377;SDS011;63959;51.960;5.886;2023-01-16T00:03:32;3.78;;;1.42;;
75377;SDS011;63959;51.960;5.886;2023-01-16T00:06:01;5.47;;;2.05;;
75377;SDS011;63959;51.960;5.886;2023-01-16T00:08:33;4.03;;;1.52;;
75377;SDS011;63959;51.960;5.886;2023-01-16T00:11:05;3.90;;;1.30;;
75377;SDS011;63959;51.960;5.886;2023-01-16T00:13:35;6.28;;;1.20;;
75377;SDS011;63959;51.960;5.886;2023-01-16T00:16:05;4.95;;;1.40;;
75377;SDS011;63959;51.960;5.886;2023-01-16T00:18:34;4.10;;;1.50;;
75377;SDS011;63959;51.960;5.886;2023-01-16T00:21:03;4.72;;;1.63;;
75377;SDS011;63959;51.960;5.886;2023-01-16T00:23:32;5.10;;;1.58;;
75377;SDS011;63959;51.960;5.886;2023-01-16T00:26:06;3.30;;;1.30;;
75377;SDS011;63959;51.960;5.886;2023-01-16T00:28:40;4.57;;;1.50;;
75377;SDS011;63959;51.960;5.886;2023-01-16T00:31:09;5.68;;;1.85;;
75377;SDS011;63959;51.960;5.886;2023-01-16T00:33:37;5.80;;;2.50;;
75377;SDS011;63959;51.960;5.886;2023-01-16T00:36:08;5.68;;;2.15;;
75377;SDS011;63959;51.960;5.886;2023-01-16T00:38:50;8.60;;;2.75;;
75377;SDS011;63959;51.960;5.886;2023-01-16T00:41:23;7.70;;;3.78;;
75377;SDS011;63959;51.960;5.886;2023-01-16T00:43:52;7.45;;;3.35;;
75377;SDS011;63959;51.960;5.886;2023-01-16T00:46:24;6.07;;;3.33;;
75377;SDS011;63959;51.960;5.886;2023-01-16T00:48:55;7.38;;;3.50;;
75377;SDS011;63959;51.960;5.886;2023-01-16T00:51:23;8.43;;;4.00;;
75377;SDS011;63959;51.960;5.886;2023-01-16T00:53:57;9.10;;;4.28;;
75377;SDS011;63959;51.960;5.886;2023-01-16T00:56:30;8.80;;;4.97;;
75377;SDS011;63959;51.960;5.886;2023-01-16T00:58:59;8.25;;;4.85;;
75377;SDS011;63959;51.960;5.886;2023-01-16T01:01:27;9.55;;;4.90;;
75377;SDS011;63959;51.960;5.886;2023-01-16T01:04:00;8.93;;;5.22;;
75377;SDS011;63959;51.960;5.886;2023-01-16T01:06:29;14.30;;;6.40;;
75377;SDS011;63959;51.960;5.886;2023-01-16T01:08:57;10.23;;;5.57;;
75377;SDS011;63959;51.960;5.886;2023-01-16T01:11:26;9.85;;;5.28;;
75377;SDS011;63959;51.960;5.886;2023-01-16T01:13:59;9.25;;;4.82;;
75377;SDS011;63959;51.960;5.886;2023-01-16T01:16:27;7.88;;;4.78;;
75377;SDS011;63959;51.960;5.886;2023-01-16T01:18:56;8.35;;;5.05;;
75377;SDS011;63959;51.960;5.886;2023-01-16T01:21:25;9.30;;;5.22;;
75377;SDS011;63959;51.960;5.886;2023-01-16T01:23:55;8.18;;;3.85;;
75377;SDS011;63959;51.960;5.886;2023-01-16T01:26:23;7.88;;;4.57;;
75377;SDS011;63959;51.960;5.886;2023-01-16T01:28:55;10.77;;;5.03;;
75377;SDS011;63959;51.960;5.886;2023-01-16T01:31:26;7.07;;;3.35;;
75377;SDS011;63959;51.960;5.886;2023-01-16T01:33:55;8.40;;;3.47;;
75377;SDS011;63959;51.960;5.886;2023-01-16T01:36:24;8.98;;;4.40;;
75377;SDS011;63959;51.960;5.886;2023-01-16T01:38:52;8.13;;;3.50;;
75377;SDS011;63959;51.960;5.886;2023-01-16T01:41:21;6.32;;;3.50;;
75377;SDS011;63959;51.960;5.886;2023-01-16T01:43:51;8.15;;;3.45;;
75377;SDS011;63959;51.960;5.886;2023-01-16T01:46:21;8.45;;;4.28;;
75377;SDS011;63959;51.960;5.886;2023-01-16T01:48:56;7.93;;;3.63;;
75377;SDS011;63959;51.960;5.886;2023-01-16T01:51:27;10.23;;;4.90;;
75377;SDS011;63959;51.960;5.886;2023-01-16T01:54:16;9.35;;;4.38;;
75377;SDS011;63959;51.960;5.886;2023-01-16T01:56:46;7.05;;;3.70;;
75377;SDS011;63959;51.960;5.886;2023-01-16T01:59:17;6.35;;;2.95;;
75377;SDS011;63959;51.960;5.886;2023-01-16T02:01:49;8.68;;;3.53;;
75377;SDS011;63959;51.960;5.886;2023-01-16T02:04:21;9.55;;;2.60;;
75377;SDS011;63959;51.960;5.886;2023-01-16T02:06:53;5.35;;;2.13;;
75377;SDS011;63959;51.960;5.886;2023-01-16T02:09:22;7.57;;;2.70;;
75377;SDS011;63959;51.960;5.886;2023-01-16T02:11:53;7.78;;;2.78;;
75377;SDS011;63959;51.960;5.886;2023-01-16T02:14:24;5.97;;;2.45;;
75377;SDS011;63959;51.960;5.886;2023-01-16T02:17:03;7.00;;;2.33;;
75377;SDS011;63959;51.960;5.886;2023-01-16T02:19:49;6.25;;;2.20;;
75377;SDS011;63959;51.960;5.886;2023-01-16T02:22:37;8.45;;;2.30;;
75377;SDS011;63959;51.960;5.886;2023-01-16T02:25:19;6.10;;;1.98;;
75377;SDS011;63959;51.960;5.886;2023-01-16T02:28:06;5.55;;;1.50;;
75377;SDS011;63959;51.960;5.886;2023-01-16T02:33:25;5.20;;;1.55;;
75377;SDS011;63959;51.960;5.886;2023-01-16T02:35:58;4.00;;;1.45;;
75377;SDS011;63959;51.960;5.886;2023-01-16T02:38:33;6.50;;;1.75;;
75377;SDS011;63959;51.960;5.886;2023-01-16T02:41:06;5.65;;;1.52;;
75377;SDS011;63959;51.960;5.886;2023-01-16T02:43:40;7.82;;;1.60;;
75377;SDS011;63959;51.960;5.886;2023-01-16T02:46:12;8.18;;;1.90;;
75377;SDS011;63959;51.960;5.886;2023-01-16T02:48:48;6.78;;;1.48;;
75377;SDS011;63959;51.960;5.886;2023-01-16T02:51:21;6.13;;;1.48;;
75377;SDS011;63959;51.960;5.886;2023-01-16T02:53:52;3.83;;;1.30;;
75377;SDS011;63959;51.960;5.886;2023-01-16T02:56:26;4.38;;;1.23;;
75377;SDS011;63959;51.960;5.886;2023-01-16T02:58:56;4.85;;;1.20;;
75377;SDS011;63959;51.960;5.886;2023-01-16T03:01:25;6.05;;;1.13;;
75377;SDS011;63959;51.960;5.886;2023-01-16T03:04:05;3.90;;;1.10;;
75377;SDS011;63959;51.960;5.886;2023-01-16T03:06:42;3.78;;;1.27;;
75377;SDS011;63959;51.960;5.886;2023-01-16T03:09:19;5.55;;;1.40;;
75377;SDS011;63959;51.960;5.886;2023-01-16T03:11:53;4.43;;;1.27;;
75377;SDS011;63959;51.960;5.886;2023-01-16T03:14:28;5.40;;;1.50;;
75377;SDS011;63959;51.960;5.886;2023-01-16T03:17:03;6.45;;;1.50;;
75377;SDS011;63959;51.960;5.886;2023-01-16T03:19:42;3.92;;;1.00;;
75377;SDS011;63959;51.960;5.886;2023-01-16T03:22:12;4.50;;;1.20;;
75377;SDS011;63959;51.960;5.886;2023-01-16T03:24:48;3.30;;;1.20;;
75377;SDS011;63959;51.960;5.886;2023-01-16T03:27:26;5.05;;;1.30;;
75377;SDS011;63959;51.960;5.886;2023-01-16T03:29:59;4.30;;;1.10;;
75377;SDS011;63959;51.960;5.886;2023-01-16T03:32:33;6.78;;;1.17;;
75377;SDS011;63959;51.960;5.886;2023-01-16T03:35:06;5.88;;;1.48;;
75377;SDS011;63959;51.960;5.886;2023-01-16T03:37:38;4.78;;;1.42;;
75377;SDS011;63959;51.960;5.886;2023-01-16T03:40:09;6.10;;;1.40;;
75377;SDS011;63959;51.960;5.886;2023-01-16T03:42:40;6.53;;;1.40;;
75377;SDS011;63959;51.960;5.886;2023-01-16T03:45:11;4.95;;;1.30;;
75377;SDS011;63959;51.960;5.886;2023-01-16T03:47:42;7.60;;;2.20;;
75377;SDS011;63959;51.960;5.886;2023-01-16T03:50:16;3.08;;;1.13;;
75377;SDS011;63959;51.960;5.886;2023-01-16T03:52:48;5.82;;;1.50;;
75377;SDS011;63959;51.960;5.886;2023-01-16T03:55:21;5.00;;;1.00;;
75377;SDS011;63959;51.960;5.886;2023-01-16T03:57:54;4.93;;;1.15;;
75377;SDS011;63959;51.960;5.886;2023-01-16T04:00:23;3.72;;;1.13;;
75377;SDS011;63959;51.960;5.886;2023-01-16T04:02:56;3.15;;;0.95;;
75377;SDS011;63959;51.960;5.886;2023-01-16T04:05:29;2.80;;;0.90;;
75377;SDS011;63959;51.960;5.886;2023-01-16T04:07:59;3.90;;;1.05;;
75377;SDS011;63959;51.960;5.886;2023-01-16T04:10:29;5.50;;;1.02;;
75377;SDS011;63959;51.960;5.886;2023-01-16T04:13:00;6.15;;;1.40;;
75377;SDS011;63959;51.960;5.886;2023-01-16T04:15:30;3.33;;;1.02;;
75377;SDS011;63959;51.960;5.886;2023-01-16T04:17:59;7.88;;;1.52;;
75377;SDS011;63959;51.960;5.886;2023-01-16T04:20:30;3.10;;;1.10;;
75377;SDS011;63959;51.960;5.886;2023-01-16T04:23:00;5.93;;;1.13;;
75377;SDS011;63959;51.960;5.886;2023-01-16T04:25:28;7.00;;;1.50;;
75377;SDS011;63959;51.960;5.886;2023-01-16T04:27:57;7.63;;;1.63;;
75377;SDS011;63959;51.960;5.886;2023-01-16T04:30:26;6.80;;;1.50;;
75377;SDS011;63959;51.960;5.886;2023-01-16T04:32:55;8.40;;;2.05;;
75377;SDS011;63959;51.960;5.886;2023-01-16T04:35:23;6.47;;;2.00;;
75377;SDS011;63959;51.960;5.886;2023-01-16T04:37:55;10.60;;;2.08;;
75377;SDS011;63959;51.960;5.886;2023-01-16T04:40:24;8.95;;;2.65;;
75377;SDS011;63959;51.960;5.886;2023-01-16T04:42:53;7.10;;;1.90;;
75377;SDS011;63959;51.960;5.886;2023-01-16T04:45:22;5.40;;;1.40;;
75377;SDS011;63959;51.960;5.886;2023-01-16T04:47:51;4.70;;;1.25;;
75377;SDS011;63959;51.960;5.886;2023-01-16T04:50:20;6.95;;;1.70;;
75377;SDS011;63959;51.960;5.886;2023-01-16T04:52:48;5.43;;;1.80;;
75377;SDS011;63959;51.960;5.886;2023-01-16T04:55:20;7.45;;;1.80;;
75377;SDS011;63959;51.960;5.886;2023-01-16T04:57:49;8.57;;;2.95;;
75377;SDS011;63959;51.960;5.886;2023-01-16T05:00:19;5.05;;;2.45;;
75377;SDS011;63959;51.960;5.886;2023-01-16T05:02:48;5.55;;;1.70;;
75377;SDS011;63959;51.960;5.886;2023-01-16T05:05:16;6.15;;;1.63;;
75377;SDS011;63959;51.960;5.886;2023-01-16T05:07:45;4.78;;;1.58;;
75377;SDS011;63959;51.960;5.886;2023-01-16T05:10:36;7.40;;;1.80;;
75377;SDS011;63959;51.960;5.886;2023-01-16T05:13:05;6.50;;;1.50;;
75377;SDS011;63959;51.960;5.886;2023-01-16T05:15:36;4.95;;;1.85;;
75377;SDS011;63959;51.960;5.886;2023-01-16T05:18:04;5.80;;;1.77;;
75377;SDS011;63959;51.960;5.886;2023-01-16T05:20:33;6.82;;;1.83;;
75377;SDS011;63959;51.960;5.886;2023-01-16T05:23:02;6.70;;;1.90;;
75377;SDS011;63959;51.960;5.886;2023-01-16T05:25:31;6.50;;;1.85;;
75377;SDS011;63959;51.960;5.886;2023-01-16T05:28:03;6.35;;;1.95;;
75377;SDS011;63959;51.960;5.886;2023-01-16T05:30:32;7.88;;;1.92;;
75377;SDS011;63959;51.960;5.886;2023-01-16T05:33:03;7.40;;;2.00;;
75377;SDS011;63959;51.960;5.886;2023-01-16T05:35:32;4.38;;;1.67;;
75377;SDS011;63959;51.960;5.886;2023-01-16T05:38:00;7.30;;;1.90;;
75377;SDS011;63959;51.960;5.886;2023-01-16T05:40:29;5.45;;;1.60;;
75377;SDS011;63959;51.960;5.886;2023-01-16T05:42:58;8.15;;;1.80;;
75377;SDS011;63959;51.960;5.886;2023-01-16T05:45:29;8.77;;;1.85;;
75377;SDS011;63959;51.960;5.886;2023-01-16T05:47:58;5.15;;;1.80;;
75377;SDS011;63959;51.960;5.886;2023-01-16T05:50:27;7.97;;;1.70;;
75377;SDS011;63959;51.960;5.886;2023-01-16T05:52:56;7.45;;;1.48;;
75377;SDS011;63959;51.960;5.886;2023-01-16T05:55:24;7.93;;;1.90;;
75377;SDS011;63959;51.960;5.886;2023-01-16T05:57:55;5.25;;;1.60;;
75377;SDS011;63959;51.960;5.886;2023-01-16T06:00:24;7.10;;;2.17;;
75377;SDS011;63959;51.960;5.886;2023-01-16T06:02:55;5.68;;;1.55;;
75377;SDS011;63959;51.960;5.886;2023-01-16T06:05:24;7.25;;;2.47;;
75377;SDS011;63959;51.960;5.886;2023-01-16T06:07:53;6.80;;;2.25;;
75377;SDS011;63959;51.960;5.886;2023-01-16T06:10:22;9.38;;;3.35;;
75377;SDS011;63959;51.960;5.886;2023-01-16T06:12:51;7.20;;;2.55;;
75377;SDS011;63959;51.960;5.886;2023-01-16T06:15:20;10.32;;;3.03;;
75377;SDS011;63959;51.960;5.886;2023-01-16T06:17:51;8.45;;;2.55;;
75377;SDS011;63959;51.960;5.886;2023-01-16T06:20:23;6.13;;;1.95;;
75377;SDS011;63959;51.960;5.886;2023-01-16T06:22:51;10.43;;;2.78;;
75377;SDS011;63959;51.960;5.886;2023-01-16T06:25:20;7.47;;;2.00;;
75377;SDS011;63959;51.960;5.886;2023-01-16T06:27:49;7.43;;;1.73;;
75377;SDS011;63959;51.960;5.886;2023-01-16T06:30:18;4.95;;;1.50;;
75377;SDS011;63959;51.960;5.886;2023-01-16T06:32:47;5.32;;;1.52;;
75377;SDS011;63959;51.960;5.886;2023-01-16T06:35:16;3.80;;;1.55;;
75377;SDS011;63959;51.960;5.886;2023-01-16T06:37:47;3.72;;;1.27;;
75377;SDS011;63959;51.960;5.886;2023-01-16T06:40:16;7.20;;;1.67;;
75377;SDS011;63959;51.960;5.886;2023-01-16T06:42:46;5.15;;;1.45;;
75377;SDS011;63959;51.960;5.886;2023-01-16T06:45:16;4.47;;;1.58;;
75377;SDS011;63959;51.960;5.886;2023-01-16T06:47:50;5.35;;;1.63;;
75377;SDS011;63959;51.960;5.886;2023-01-16T06:50:18;9.07;;;1.63;;
75377;SDS011;63959;51.960;5.886;2023-01-16T06:52:50;3.92;;;1.33;;
75377;SDS011;63959;51.960;5.886;2023-01-16T06:55:20;5.60;;;1.50;;
75377;SDS011;63959;51.960;5.886;2023-01-16T06:57:49;8.75;;;1.80;;
75377;SDS011;63959;51.960;5.886;2023-01-16T07:00:18;4.93;;;1.40;;
75377;SDS011;63959;51.960;5.886;2023-01-16T07:02:50;4.72;;;1.80;;
75377;SDS011;63959;51.960;5.886;2023-01-16T07:05:20;5.80;;;2.25;;
75377;SDS011;63959;51.960;5.886;2023-01-16T07:07:51;5.35;;;1.90;;
75377;SDS011;63959;51.960;5.886;2023-01-16T07:10:20;6.57;;;2.22;;
75377;SDS011;63959;51.960;5.886;2023-01-16T07:12:49;6.47;;;1.90;;
75377;SDS011;63959;51.960;5.886;2023-01-16T07:15:18;6.20;;;1.70;;
75377;SDS011;63959;51.960;5.886;2023-01-16T07:17:59;5.10;;;1.63;;
75377;SDS011;63959;51.960;5.886;2023-01-16T07:20:40;6.30;;;2.00;;
75377;SDS011;63959;51.960;5.886;2023-01-16T07:23:26;6.95;;;2.00;;
75377;SDS011;63959;51.960;5.886;2023-01-16T07:25:55;5.95;;;1.80;;
75377;SDS011;63959;51.960;5.886;2023-01-16T07:28:25;8.00;;;1.85;;
75377;SDS011;63959;51.960;5.886;2023-01-16T07:30:54;6.20;;;1.52;;
75377;SDS011;63959;51.960;5.886;2023-01-16T07:33:23;4.55;;;1.63;;
75377;SDS011;63959;51.960;5.886;2023-01-16T07:35:51;5.63;;;1.92;;
75377;SDS011;63959;51.960;5.886;2023-01-16T07:38:20;6.55;;;1.50;;
75377;SDS011;63959;51.960;5.886;2023-01-16T07:40:51;6.63;;;1.42;;
75377;SDS011;63959;51.960;5.886;2023-01-16T07:43:20;6.20;;;1.42;;
75377;SDS011;63959;51.960;5.886;2023-01-16T07:45:49;6.00;;;2.25;;
75377;SDS011;63959;51.960;5.886;2023-01-16T07:48:18;6.30;;;1.70;;
75377;SDS011;63959;51.960;5.886;2023-01-16T07:50:50;4.32;;;1.30;;
75377;SDS011;63959;51.960;5.886;2023-01-16T07:53:20;5.60;;;1.92;;
75377;SDS011;63959;51.960;5.886;2023-01-16T07:55:52;6.15;;;1.70;;
75377;SDS011;63959;51.960;5.886;2023-01-16T07:58:22;5.22;;;1.83;;
75377;SDS011;63959;51.960;5.886;2023-01-16T08:00:54;4.35;;;2.03;;
75377;SDS011;63959;51.960;5.886;2023-01-16T08:03:27;6.95;;;1.83;;
75377;SDS011;63959;51.960;5.886;2023-01-16T08:06:03;5.38;;;1.70;;
75377;SDS011;63959;51.960;5.886;2023-01-16T08:08:32;5.03;;;1.42;;
75377;SDS011;63959;51.960;5.886;2023-01-16T08:11:04;5.80;;;1.40;;
75377;SDS011;63959;51.960;5.886;2023-01-16T08:13:53;6.18;;;1.65;;
75377;SDS011;63959;51.960;5.886;2023-01-16T08:16:28;5.85;;;1.98;;
75377;SDS011;63959;51.960;5.886;2023-01-16T08:18:57;10.15;;;2.30;;
75377;SDS011;63959;51.960;5.886;2023-01-16T08:21:25;5.13;;;1.90;;
75377;SDS011;63959;51.960;5.886;2023-01-16T08:23:54;5.70;;;2.28;;
75377;SDS011;63959;51.960;5.886;2023-01-16T08:26:25;6.78;;;2.40;;
75377;SDS011;63959;51.960;5.886;2023-01-16T08:28:54;5.20;;;1.88;;
75377;SDS011;63959;51.960;5.886;2023-01-16T08:31:23;6.00;;;1.70;;
75377;SDS011;63959;51.960;5.886;2023-01-16T08:33:54;7.75;;;2.05;;
75377;SDS011;63959;51.960;5.886;2023-01-16T08:36:23;3.35;;;1.33;;
75377;SDS011;63959;51.960;5.886;2023-01-16T08:38:53;5.93;;;1.88;;
75377;SDS011;63959;51.960;5.886;2023-01-16T08:41:22;6.35;;;1.60;;
75377;SDS011;63959;51.960;5.886;2023-01-16T08:44:05;5.75;;;1.40;;
75377;SDS011;63959;51.960;5.886;2023-01-16T08:46:49;5.07;;;1.48;;
75377;SDS011;63959;51.960;5.886;2023-01-16T08:49:33;7.03;;;1.90;;
75377;SDS011;63959;51.960;5.886;2023-01-16T08:52:14;5.90;;;1.60;;
75377;SDS011;63959;51.960;5.886;2023-01-16T08:54:43;4.43;;;1.48;;
75377;SDS011;63959;51.960;5.886;2023-01-16T08:57:11;6.13;;;1.55;;
75377;SDS011;63959;51.960;5.886;2023-01-16T08:59:43;4.78;;;1.65;;
75377;SDS011;63959;51.960;5.886;2023-01-16T09:02:12;5.22;;;1.67;;
75377;SDS011;63959;51.960;5.886;2023-01-16T09:04:44;5.95;;;1.80;;
75377;SDS011;63959;51.960;5.886;2023-01-16T09:07:17;4.88;;;1.70;;
75377;SDS011;63959;51.960;5.886;2023-01-16T09:09:48;6.88;;;1.75;;
75377;SDS011;63959;51.960;5.886;2023-01-16T09:12:17;5.50;;;1.90;;
75377;SDS011;63959;51.960;5.886;2023-01-16T09:15:01;7.93;;;2.30;;
75377;SDS011;63959;51.960;5.886;2023-01-16T09:17:33;6.90;;;2.20;;
75377;SDS011;63959;51.960;5.886;2023-01-16T09:20:08;7.45;;;2.00;;
75377;SDS011;63959;51.960;5.886;2023-01-16T09:22:37;6.43;;;1.90;;
75377;SDS011;63959;51.960;5.886;2023-01-16T09:25:09;8.55;;;1.80;;
75377;SDS011;63959;51.960;5.886;2023-01-16T09:27:37;5.72;;;1.80;;
75377;SDS011;63959;51.960;5.886;2023-01-16T09:30:22;5.78;;;1.90;;
75377;SDS011;63959;51.960;5.886;2023-01-16T09:32:53;5.35;;;2.20;;
75377;SDS011;63959;51.960;5.886;2023-01-16T09:35:23;6.25;;;2.00;;
75377;SDS011;63959;51.960;5.886;2023-01-16T09:37:55;5.53;;;2.15;;
75377;SDS011;63959;51.960;5.886;2023-01-16T09:40:27;5.25;;;1.98;;
75377;SDS011;63959;51.960;5.886;2023-01-16T09:43:01;7.03;;;2.92;;
75377;SDS011;63959;51.960;5.886;2023-01-16T09:45:49;6.85;;;2.17;;
75377;SDS011;63959;51.960;5.886;2023-01-16T09:48:25;6.47;;;2.30;;
75377;SDS011;63959;51.960;5.886;2023-01-16T09:50:55;5.53;;;2.25;;
75377;SDS011;63959;51.960;5.886;2023-01-16T09:53:32;7.45;;;2.40;;
75377;SDS011;63959;51.960;5.886;2023-01-16T09:56:18;6.57;;;2.75;;
75377;SDS011;63959;51.960;5.886;2023-01-16T09:59:04;6.22;;;2.35;;
75377;SDS011;63959;51.960;5.886;2023-01-16T10:01:41;6.22;;;2.42;;
75377;SDS011;63959;51.960;5.886;2023-01-16T10:04:15;5.30;;;2.17;;
75377;SDS011;63959;51.960;5.886;2023-01-16T10:06:49;6.97;;;2.20;;
75377;SDS011;63959;51.960;5.886;2023-01-16T10:09:22;4.63;;;2.20;;
75377;SDS011;63959;51.960;5.886;2023-01-16T10:11:57;7.00;;;2.75;;
75377;SDS011;63959;51.960;5.886;2023-01-16T10:14:31;5.47;;;2.20;;
75377;SDS011;63959;51.960;5.886;2023-01-16T10:17:18;5.57;;;2.33;;
75377;SDS011;63959;51.960;5.886;2023-01-16T10:22:46;6.90;;;2.03;;
75377;SDS011;63959;51.960;5.886;2023-01-16T10:25:24;4.50;;;2.00;;
75377;SDS011;63959;51.960;5.886;2023-01-16T10:28:06;4.65;;;2.30;;
75377;SDS011;63959;51.960;5.886;2023-01-16T10:30:42;4.45;;;1.73;;
75377;SDS011;63959;51.960;5.886;2023-01-16T10:33:28;5.00;;;1.83;;
75377;SDS011;63959;51.960;5.886;2023-01-16T10:36:04;3.60;;;1.58;;
75377;SDS011;63959;51.960;5.886;2023-01-16T10:38:55;4.38;;;2.10;;
75377;SDS011;63959;51.960;5.886;2023-01-16T10:41:26;4.70;;;2.13;;
75377;SDS011;63959;51.960;5.886;2023-01-16T10:44:17;4.93;;;1.90;;
75377;SDS011;63959;51.960;5.886;2023-01-16T10:47:02;4.05;;;2.05;;
75377;SDS011;63959;51.960;5.886;2023-01-16T10:50:08;5.95;;;1.83;;
75377;SDS011;63959;51.960;5.886;2023-01-16T10:52:45;4.05;;;1.70;;
75377;SDS011;63959;51.960;5.886;2023-01-16T10:55:17;5.55;;;1.90;;
75377;SDS011;63959;51.960;5.886;2023-01-16T10:57:54;6.95;;;2.20;;
75377;SDS011;63959;51.960;5.886;2023-01-16T11:00:26;5.53;;;1.98;;
75377;SDS011;63959;51.960;5.886;2023-01-16T11:03:08;3.72;;;1.48;;
75377;SDS011;63959;51.960;5.886;2023-01-16T11:06:05;3.70;;;1.40;;
75377;SDS011;63959;51.960;5.886;2023-01-16T11:08:57;3.88;;;1.63;;
75377;SDS011;63959;51.960;5.886;2023-01-16T11:11:49;3.75;;;1.52;;
75377;SDS011;63959;51.960;5.886;2023-01-16T11:14:39;4.10;;;1.50;;
75377;SDS011;63959;51.960;5.886;2023-01-16T11:23:40;2.70;;;1.05;;
75377;SDS011;63959;51.960;5.886;2023-01-16T11:26:24;2.45;;;1.13;;
75377;SDS011;63959;51.960;5.886;2023-01-16T11:29:08;3.40;;;1.25;;
75377;SDS011;63959;51.960;5.886;2023-01-16T11:31:52;4.10;;;1.20;;
75377;SDS011;63959;51.960;5.886;2023-01-16T11:40:24;3.88;;;1.08;;
75377;SDS011;63959;51.960;5.886;2023-01-16T11:43:06;3.17;;;1.27;;
75377;SDS011;63959;51.960;5.886;2023-01-16T11:45:50;4.78;;;1.08;;
75377;SDS011;63959;51.960;5.886;2023-01-16T11:48:36;3.25;;;1.00;;
75377;SDS011;63959;51.960;5.886;2023-01-16T11:51:13;2.90;;;1.10;;
75377;SDS011;63959;51.960;5.886;2023-01-16T11:57:07;3.80;;;1.00;;
75377;SDS011;63959;51.960;5.886;2023-01-16T11:59:43;4.72;;;1.20;;
75377;SDS011;63959;51.960;5.886;2023-01-16T12:02:20;3.83;;;1.20;;
75377;SDS011;63959;51.960;5.886;2023-01-16T12:05:04;2.95;;;1.10;;
75377;SDS011;63959;51.960;5.886;2023-01-16T12:08:02;2.75;;;1.00;;
75377;SDS011;63959;51.960;5.886;2023-01-16T12:10:40;4.25;;;1.10;;
75377;SDS011;63959;51.960;5.886;2023-01-16T12:13:25;2.63;;;1.02;;
75377;SDS011;63959;51.960;5.886;2023-01-16T12:16:12;2.97;;;0.93;;
75377;SDS011;63959;51.960;5.886;2023-01-16T12:18:59;3.45;;;1.05;;
75377;SDS011;63959;51.960;5.886;2023-01-16T12:21:46;2.00;;;0.90;;
75377;SDS011;63959;51.960;5.886;2023-01-16T12:24:34;3.35;;;1.23;;
75377;SDS011;63959;51.960;5.886;2023-01-16T12:27:12;3.65;;;0.90;;
75377;SDS011;63959;51.960;5.886;2023-01-16T12:30:14;3.38;;;1.30;;
75377;SDS011;63959;51.960;5.886;2023-01-16T12:32:52;1.58;;;0.90;;
75377;SDS011;63959;51.960;5.886;2023-01-16T12:35:52;2.10;;;0.93;;
75377;SDS011;63959;51.960;5.886;2023-01-16T12:38:31;4.18;;;1.30;;
75377;SDS011;63959;51.960;5.886;2023-01-16T12:41:15;2.42;;;0.90;;
75377;SDS011;63959;51.960;5.886;2023-01-16T12:44:15;3.08;;;0.80;;
75377;SDS011;63959;51.960;5.886;2023-01-16T12:49:56;3.25;;;1.10;;
75377;SDS011;63959;51.960;5.886;2023-01-16T12:52:44;3.00;;;1.20;;
75377;SDS011;63959;51.960;5.886;2023-01-16T12:55:27;3.42;;;1.10;;
75377;SDS011;63959;51.960;5.886;2023-01-16T12:58:09;5.35;;;1.33;;
75377;SDS011;63959;51.960;5.886;2023-01-16T13:00:45;1.42;;;0.82;;
75377;SDS011;63959;51.960;5.886;2023-01-16T13:03:26;3.45;;;0.85;;
75377;SDS011;63959;51.960;5.886;2023-01-16T13:06:04;4.20;;;0.98;;
75377;SDS011;63959;51.960;5.886;2023-01-16T13:08:38;2.22;;;0.90;;
75377;SDS011;63959;51.960;5.886;2023-01-16T13:11:31;2.63;;;1.00;;
75377;SDS011;63959;51.960;5.886;2023-01-16T13:14:18;2.38;;;0.80;;
75377;SDS011;63959;51.960;5.886;2023-01-16T13:16:53;2.33;;;0.90;;
75377;SDS011;63959;51.960;5.886;2023-01-16T13:19:23;3.35;;;0.85;;
75377;SDS011;63959;51.960;5.886;2023-01-16T13:22:01;2.15;;;0.80;;
75377;SDS011;63959;51.960;5.886;2023-01-16T13:24:35;2.63;;;1.00;;
75377;SDS011;63959;51.960;5.886;2023-01-16T13:27:21;2.13;;;0.80;;
75377;SDS011;63959;51.960;5.886;2023-01-16T13:30:25;2.58;;;0.95;;
75377;SDS011;63959;51.960;5.886;2023-01-16T13:35:37;2.80;;;1.00;;
75377;SDS011;63959;51.960;5.886;2023-01-16T13:44:01;2.78;;;1.20;;
75377;SDS011;63959;51.960;5.886;2023-01-16T13:50:00;2.42;;;0.90;;
75377;SDS011;63959;51.960;5.886;2023-01-16T13:52:31;3.13;;;1.10;;
75377;SDS011;63959;51.960;5.886;2023-01-16T13:55:04;1.85;;;0.80;;
75377;SDS011;63959;51.960;5.886;2023-01-16T13:57:35;4.32;;;1.50;;
75377;SDS011;63959;51.960;5.886;2023-01-16T14:00:20;2.75;;;1.10;;
75377;SDS011;63959;51.960;5.886;2023-01-16T14:03:00;1.30;;;0.88;;
75377;SDS011;63959;51.960;5.886;2023-01-16T14:05:46;5.18;;;1.25;;
75377;SDS011;63959;51.960;5.886;2023-01-16T14:08:26;3.00;;;0.82;;
75377;SDS011;63959;51.960;5.886;2023-01-16T14:17:17;2.45;;;1.00;;
75377;SDS011;63959;51.960;5.886;2023-01-16T14:19:55;3.38;;;1.10;;
75377;SDS011;63959;51.960;5.886;2023-01-16T14:22:25;2.85;;;1.02;;
75377;SDS011;63959;51.960;5.886;2023-01-16T14:25:15;2.63;;;1.10;;
75377;SDS011;63959;51.960;5.886;2023-01-16T14:30:37;2.08;;;1.00;;
75377;SDS011;63959;51.960;5.886;2023-01-16T14:33:14;4.32;;;1.08;;
75377;SDS011;63959;51.960;5.886;2023-01-16T14:35:51;2.85;;;0.90;;
75377;SDS011;63959;51.960;5.886;2023-01-16T14:38:23;2.47;;;1.30;;
75377;SDS011;63959;51.960;5.886;2023-01-16T14:40:59;3.75;;;1.40;;
75377;SDS011;63959;51.960;5.886;2023-01-16T14:46:49;2.83;;;1.15;;
75377;SDS011;63959;51.960;5.886;2023-01-16T14:49:41;4.90;;;1.52;;
75377;SDS011;63959;51.960;5.886;2023-01-16T14:52:35;2.95;;;1.27;;
75377;SDS011;63959;51.960;5.886;2023-01-16T14:55:22;4.97;;;1.45;;
75377;SDS011;63959;51.960;5.886;2023-01-16T14:57:54;3.15;;;1.13;;
75377;SDS011;63959;51.960;5.886;2023-01-16T15:00:25;5.53;;;1.33;;
75377;SDS011;63959;51.960;5.886;2023-01-16T15:02:58;4.65;;;1.63;;
75377;SDS011;63959;51.960;5.886;2023-01-16T15:05:32;4.95;;;1.70;;
75377;SDS011;63959;51.960;5.886;2023-01-16T15:08:14;3.58;;;1.70;;
75377;SDS011;63959;51.960;5.886;2023-01-16T15:10:50;4.38;;;1.40;;
75377;SDS011;63959;51.960;5.886;2023-01-16T15:13:23;3.95;;;1.50;;
75377;SDS011;63959;51.960;5.886;2023-01-16T15:16:16;5.60;;;1.63;;
75377;SDS011;63959;51.960;5.886;2023-01-16T15:19:15;3.70;;;1.80;;
75377;SDS011;63959;51.960;5.886;2023-01-16T15:21:59;4.72;;;1.80;;
75377;SDS011;63959;51.960;5.886;2023-01-16T15:24:30;5.10;;;1.90;;
75377;SDS011;63959;51.960;5.886;2023-01-16T15:27:00;5.55;;;1.90;;
75377;SDS011;63959;51.960;5.886;2023-01-16T15:29:34;4.55;;;1.95;;
75377;SDS011;63959;51.960;5.886;2023-01-16T15:32:11;4.13;;;2.08;;
75377;SDS011;63959;51.960;5.886;2023-01-16T15:34:44;4.40;;;1.85;;
75377;SDS011;63959;51.960;5.886;2023-01-16T15:37:24;5.03;;;1.50;;
75377;SDS011;63959;51.960;5.886;2023-01-16T15:39:57;3.75;;;1.90;;
75377;SDS011;63959;51.960;5.886;2023-01-16T15:42:32;4.20;;;1.60;;
75377;SDS011;63959;51.960;5.886;2023-01-16T15:45:17;4.50;;;1.92;;
75377;SDS011;63959;51.960;5.886;2023-01-16T15:50:55;5.03;;;2.03;;
75377;SDS011;63959;51.960;5.886;2023-01-16T15:53:34;4.07;;;1.88;;
75377;SDS011;63959;51.960;5.886;2023-01-16T15:56:16;6.00;;;2.13;;
75377;SDS011;63959;51.960;5.886;2023-01-16T15:58:47;4.35;;;1.83;;
75377;SDS011;63959;51.960;5.886;2023-01-16T16:01:28;4.47;;;2.08;;
75377;SDS011;63959;51.960;5.886;2023-01-16T16:04:01;3.97;;;1.80;;
75377;SDS011;63959;51.960;5.886;2023-01-16T16:06:30;4.35;;;1.80;;
75377;SDS011;63959;51.960;5.886;2023-01-16T16:09:06;5.18;;;2.20;;
75377;SDS011;63959;51.960;5.886;2023-01-16T16:11:43;3.65;;;1.90;;
75377;SDS011;63959;51.960;5.886;2023-01-16T16:14:22;4.40;;;1.90;;
75377;SDS011;63959;51.960;5.886;2023-01-16T16:17:04;4.47;;;2.00;;
75377;SDS011;63959;51.960;5.886;2023-01-16T16:19:46;4.75;;;1.80;;
75377;SDS011;63959;51.960;5.886;2023-01-16T16:22:16;4.15;;;1.98;;
75377;SDS011;63959;51.960;5.886;2023-01-16T16:25:16;5.85;;;2.90;;